Briefing drone pour Le puy-en-velay (LFHP)

Rechercher une autre localisation

Conditions de vol :


Nous sommes le : Vendredi 25 septembre 2020
Il est 16:18 UTC (18:18 LT)

Lever de soleil : 05:09 UTC (07:09 LT)
Coucher de soleil : 18:02 UTC (20:02 LT)

Météo

L'essentiel des conditions de vol

VIGILANCE MÉTÉO FRANCE - Haute-Loire (43)
Vigilance Jaune : Orages
METAR de LFHP
LFHP 251600Z AUTO 29011KT 230V320 9999 SCT025/// OVC032/// ///CB 08/04 Q1008

Date d'émission: 25/09/2020
Heure d'émission: 16:00 UTC
Vent: 290° (variable du 230° au 320°) pour 11 KT (20 km/h)
Visibilité horizontale: > 10 km
Plafond :
- Nuages épars à 2500ft (762m)
- Couvert à 3200ft (975m)
Température: 8 °C
Point de rosée: 4 °C
Humidité: 76%
Pression (QNH): 1008 hPa
Prévision 24h pour Le puy-en-velay
Vent : 315° pour 4 KT (15 km/h)
Temperature Maxi: 6 °C
Temperature Min: 6 °C
Humidité : 78%
Condition : Légère pluie



Warning: count(): Parameter must be an array or an object that implements Countable in /homepages/6/d509196549/htdocs/droneoxygene/briefing.php on line 743
WEBCAM POUR LE PUY-EN-VELAY

Réglementation

Voler en sécurité

CARTES AERONAUTIQUE 1/500.000
CARTES VAC (LFHP)
SUP AIP




Chargement des AIP...
NOTAM (LE PUY-EN-VELAY + Terrain à proximité / FIR )




Chargement des NOTAMS...
CONTACT PREFECTURE 43


Avertissement : Les données mises à disposition sont indicatives. Oxygène Drone ne pourra être tenu responsable de dégâts causés aux biens et aux personnes.